Time;durP1;ratioP1;P1;durP2;ratioP2;P2;SDS_P1;SDS_P2;PMS_P1;PMS_P2;Temp;Humidity;BMP_temperature;BMP_pressure;BME280_temperature;BME280_humidity;BME280_pressure;Samples;Min_cycle;Max_cycle;Signal;HPM_P1;HPM_P2
2022/09/26 00:01:15;;;;;;;6.80;2.20;;;11.30;99.90;;;;;;5080884;28;20063;-56
2022/09/26 00:03:46;;;;;;;6.00;1.90;;;11.30;99.90;;;;;;5080235;28;20056;-57
2022/09/26 00:06:12;;;;;;;7.20;2.17;;;11.40;99.90;;;;;;5080709;28;20052;-57
2022/09/26 00:08:39;;;;;;;6.20;2.17;;;11.40;99.90;;;;;;5081806;28;20059;-57
2022/09/26 00:11:07;;;;;;;9.85;2.20;;;11.50;99.90;;;;;;5080671;28;20044;-57
2022/09/26 00:13:36;;;;;;;9.27;3.05;;;11.40;99.90;;;;;;5080957;28;20052;-57
2022/09/26 00:16:03;;;;;;;8.82;2.20;;;11.30;99.90;;;;;;5081203;28;20076;-58
2022/09/26 00:18:28;;;;;;;6.55;2.35;;;11.40;99.90;;;;;;5080062;28;20081;-57
2022/09/26 00:21:09;;;;;;;8.70;2.55;;;11.40;99.90;;;;;;5081130;28;20079;-56
2022/09/26 00:23:34;;;;;;;5.47;2.60;;;11.40;99.90;;;;;;5080420;28;20087;-57
2022/09/26 00:26:00;;;;;;;8.18;2.88;;;11.40;99.90;;;;;;5081250;28;20094;-57
2022/09/26 00:28:27;;;;;;;9.38;2.60;;;11.40;99.90;;;;;;5080593;28;20058;-57
2022/09/26 00:30:53;;;;;;;6.63;2.55;;;11.40;99.90;;;;;;5080603;28;20048;-57
2022/09/26 00:33:19;;;;;;;10.18;2.72;;;11.40;99.90;;;;;;5080927;28;20052;-57
2022/09/26 00:35:52;;;;;;;8.45;2.65;;;11.40;99.90;;;;;;5080292;28;20062;-57
2022/09/26 00:38:18;;;;;;;8.30;2.90;;;11.40;99.90;;;;;;5071748;28;20051;-57
2022/09/26 00:40:45;;;;;;;8.30;2.60;;;11.30;99.90;;;;;;5069716;28;20331;-56
2022/09/26 00:43:28;;;;;;;7.57;3.10;;;11.30;99.90;;;;;;5081025;28;20049;-57
2022/09/26 00:46:17;;;;;;;8.25;2.63;;;11.50;99.90;;;;;;5080730;28;20118;-57
2022/09/26 00:48:46;;;;;;;7.55;2.58;;;11.30;99.90;;;;;;5072141;28;20044;-57
2022/09/26 00:51:12;;;;;;;6.97;3.00;;;11.30;99.90;;;;;;5080830;28;20068;-56
2022/09/26 00:53:42;;;;;;;8.18;2.38;;;11.30;99.90;;;;;;5079773;28;20040;-56
2022/09/26 00:56:15;;;;;;;6.28;2.80;;;11.40;99.90;;;;;;5079395;28;20037;-57
2022/09/26 00:58:50;;;;;;;6.65;2.60;;;11.40;99.90;;;;;;5078810;28;20060;-57
2022/09/26 01:01:18;;;;;;;7.63;2.90;;;11.30;99.90;;;;;;5079922;28;20051;-57
2022/09/26 01:03:46;;;;;;;8.75;2.50;;;11.70;99.90;;;;;;5080555;28;20628;-57
2022/09/26 01:06:14;;;;;;;7.82;2.58;;;11.40;99.90;;;;;;5078297;28;20047;-56
2022/09/26 01:08:44;;;;;;;9.20;3.08;;;11.30;99.90;;;;;;5080930;28;20052;-56
2022/09/26 01:11:12;;;;;;;7.40;2.40;;;11.40;99.90;;;;;;5079722;28;20090;-56
2022/09/26 01:13:38;;;;;;;7.13;2.53;;;11.40;99.90;;;;;;5079977;28;20103;-57
2022/09/26 01:16:03;;;;;;;8.18;3.03;;;11.30;99.90;;;;;;5078782;28;20067;-56
2022/09/26 01:18:30;;;;;;;8.35;2.53;;;11.40;99.90;;;;;;5079548;28;20040;-57
2022/09/26 01:21:28;;;;;;;8.32;2.40;;;11.40;99.90;;;;;;5080554;28;20128;-57
2022/09/26 01:24:30;;;;;;;10.57;3.30;;;11.50;99.90;;;;;;5079692;28;20048;-57
2022/09/26 01:27:20;;;;;;;6.97;2.38;;;11.50;99.90;;;;;;5079057;28;20104;-56
2022/09/26 01:30:04;;;;;;;7.43;2.17;;;11.40;99.90;;;;;;5080458;28;20100;-57
2022/09/26 01:32:49;;;;;;;6.30;2.30;;;11.40;99.90;;;;;;5078032;28;20045;-56
2022/09/26 01:35:21;;;;;;;10.20;2.80;;;11.40;99.90;;;;;;5079618;28;20040;-57
2022/09/26 01:38:11;;;;;;;9.27;2.60;;;11.40;99.90;;;;;;5075144;28;20048;-57
2022/09/26 01:40:53;;;;;;;7.57;2.30;;;11.40;99.90;;;;;;5067912;28;20055;-57
2022/09/26 01:43:34;;;;;;;8.40;2.38;;;11.40;99.90;;;;;;5082066;28;20051;-57
2022/09/26 01:46:30;;;;;;;7.45;2.30;;;11.40;99.90;;;;;;5083966;28;20407;-57
2022/09/26 01:49:11;;;;;;;6.32;2.40;;;11.40;99.90;;;;;;5083144;28;20602;-56
2022/09/26 01:52:09;;;;;;;6.70;2.30;;;11.40;99.90;;;;;;5084465;28;20048;-57
2022/09/26 01:54:52;;;;;;;7.70;2.63;;;11.40;99.90;;;;;;5069306;28;20137;-57
2022/09/26 01:57:29;;;;;;;7.88;2.47;;;11.30;99.90;;;;;;5082981;28;20056;-57
2022/09/26 01:59:59;;;;;;;11.23;3.15;;;11.30;99.90;;;;;;5083974;28;20153;-57
2022/09/26 02:02:31;;;;;;;9.15;2.88;;;11.40;99.90;;;;;;5083374;28;20032;-59
2022/09/26 02:05:05;;;;;;;8.63;3.00;;;11.30;99.90;;;;;;5083682;28;20048;-59
2022/09/26 02:07:59;;;;;;;9.50;2.65;;;11.20;99.90;;;;;;5083741;28;20079;-59
2022/09/26 02:10:36;;;;;;;6.75;2.50;;;11.30;99.90;;;;;;5078075;28;20056;-59
2022/09/26 02:13:10;;;;;;;7.63;2.97;;;11.10;99.90;;;;;;5084033;28;20052;-59
2022/09/26 02:15:37;;;;;;;6.70;2.50;;;11.20;99.90;;;;;;5083244;28;20067;-59
2022/09/26 02:18:19;;;;;;;9.30;2.42;;;11.20;99.90;;;;;;5082930;28;20053;-60
2022/09/26 02:20:49;;;;;;;5.80;2.70;;;11.20;99.90;;;;;;5083543;28;20048;-60
2022/09/26 02:23:15;;;;;;;6.50;2.53;;;11.20;99.90;;;;;;5082472;28;20028;-60
2022/09/26 02:25:41;;;;;;;7.68;2.92;;;11.20;99.90;;;;;;5083867;28;20066;-59
2022/09/26 02:28:07;;;;;;;9.10;3.53;;;11.10;99.90;;;;;;5082629;28;20051;-60
2022/09/26 02:30:33;;;;;;;7.65;3.03;;;11.00;99.90;;;;;;5083309;28;20045;-59
2022/09/26 02:32:59;;;;;;;8.85;2.85;;;10.90;99.90;;;;;;5083039;28;20048;-60
2022/09/26 02:38:10;;;;;;;8.57;3.20;;;11.00;99.90;;;;;;5083302;28;20094;-59
2022/09/26 02:40:59;;;;;;;11.63;3.33;;;11.00;99.90;;;;;;5064001;28;20040;-60
2022/09/26 02:43:42;;;;;;;10.35;3.10;;;10.90;99.90;;;;;;5082869;28;20123;-58
2022/09/26 02:46:26;;;;;;;6.93;3.45;;;10.90;99.90;;;;;;5082721;28;20093;-59
2022/09/26 02:49:23;;;;;;;9.30;3.75;;;11.00;99.90;;;;;;5080824;28;20068;-59
2022/09/26 02:51:58;;;;;;;9.07;4.00;;;10.80;99.90;;;;;;5082891;28;20102;-58
2022/09/26 02:54:52;;;;;;;9.82;3.70;;;10.90;99.90;;;;;;5081497;28;20048;-58
2022/09/26 02:57:58;;;;;;;8.32;3.42;;;10.90;99.90;;;;;;5081887;28;20080;-58
2022/09/26 03:00:30;;;;;;;8.90;4.20;;;10.80;99.90;;;;;;5082686;28;20542;-58
2022/09/26 03:03:04;;;;;;;10.02;4.38;;;11.00;99.90;;;;;;5082610;28;20116;-57
2022/09/26 03:05:33;;;;;;;10.85;3.95;;;10.90;99.90;;;;;;5080492;28;20040;-59
2022/09/26 03:08:25;;;;;;;8.18;3.95;;;10.80;99.90;;;;;;5082868;28;20040;-59
2022/09/26 03:10:53;;;;;;;10.60;4.25;;;10.90;99.90;;;;;;5081454;28;20051;-58
2022/09/26 03:13:20;;;;;;;11.25;4.60;;;11.00;99.90;;;;;;5081034;28;20037;-59
2022/09/26 03:15:51;;;;;;;13.05;4.40;;;10.80;99.90;;;;;;5082463;28;20045;-58
2022/09/26 03:18:23;;;;;;;11.95;4.22;;;10.70;99.90;;;;;;5081594;28;20116;-59
2022/09/26 03:20:53;;;;;;;8.65;4.40;;;10.90;99.90;;;;;;5082765;28;20096;-59
2022/09/26 03:23:23;;;;;;;11.35;4.22;;;10.90;99.90;;;;;;5080120;28;20052;-59
2022/09/26 03:26:08;;;;;;;12.50;5.65;;;10.90;99.90;;;;;;5082697;28;20038;-59
2022/09/26 03:28:34;;;;;;;9.60;5.05;;;10.80;99.90;;;;;;5081967;28;20115;-58
2022/09/26 03:30:59;;;;;;;11.52;5.47;;;10.90;99.90;;;;;;5081606;28;20045;-60
2022/09/26 03:33:25;;;;;;;10.38;5.22;;;10.70;99.90;;;;;;5081907;28;20044;-59
2022/09/26 03:35:51;;;;;;;12.50;4.95;;;10.70;99.90;;;;;;5081352;28;20045;-59
2022/09/26 03:38:16;;;;;;;12.48;4.95;;;10.70;99.90;;;;;;5073132;28;20049;-59
2022/09/26 03:40:42;;;;;;;13.85;5.30;;;11.00;99.90;;;;;;5070921;28;20476;-59
2022/09/26 03:43:09;;;;;;;11.43;5.25;;;10.70;99.90;;;;;;5080786;28;20043;-59
2022/09/26 03:45:35;;;;;;;12.40;5.63;;;11.00;99.90;;;;;;5081742;28;20046;-59
2022/09/26 03:48:01;;;;;;;10.57;5.80;;;10.90;99.90;;;;;;5079789;28;20044;-59
2022/09/26 03:50:27;;;;;;;10.90;5.70;;;10.80;99.90;;;;;;5081636;28;20125;-59
2022/09/26 03:52:53;;;;;;;10.88;5.50;;;10.80;99.90;;;;;;5080989;28;20525;-59
2022/09/26 03:55:18;;;;;;;12.48;6.38;;;10.90;99.90;;;;;;5081841;28;20072;-58
2022/09/26 03:57:44;;;;;;;13.43;6.05;;;10.80;99.90;;;;;;5080668;28;20098;-58
2022/09/26 04:00:11;;;;;;;11.35;5.97;;;11.10;99.90;;;;;;5081726;28;20052;-58
2022/09/26 04:02:36;;;;;;;12.43;5.47;;;11.00;99.90;;;;;;5081143;28;20078;-58
2022/09/26 04:05:03;;;;;;;9.95;5.47;;;10.90;99.90;;;;;;5080896;28;20036;-59
2022/09/26 04:07:28;;;;;;;12.77;5.95;;;11.00;99.90;;;;;;5081272;28;20044;-59
2022/09/26 04:09:54;;;;;;;12.30;5.80;;;11.00;99.90;;;;;;5080415;28;20037;-57
2022/09/26 04:12:20;;;;;;;11.10;6.03;;;11.00;99.90;;;;;;5081442;28;20037;-58
2022/09/26 04:14:45;;;;;;;11.60;5.97;;;11.00;99.90;;;;;;5080263;28;20071;-58
2022/09/26 04:17:12;;;;;;;13.43;5.75;;;10.90;99.90;;;;;;5081489;28;20045;-57
2022/09/26 04:19:39;;;;;;;12.55;5.68;;;11.00;99.90;;;;;;5080429;28;20044;-58
2022/09/26 04:22:07;;;;;;;10.73;5.90;;;10.80;99.90;;;;;;5080830;28;20098;-59
2022/09/26 04:24:33;;;;;;;11.23;5.68;;;11.00;99.90;;;;;;5081126;28;20049;-59
2022/09/26 04:26:59;;;;;;;9.60;5.93;;;11.00;99.90;;;;;;5080326;28;20032;-59
2022/09/26 04:29:26;;;;;;;11.82;6.15;;;11.00;99.90;;;;;;5081048;28;20863;-59
2022/09/26 04:31:52;;;;;;;13.68;5.90;;;10.80;99.90;;;;;;5078413;28;20033;-58
2022/09/26 04:34:18;;;;;;;11.98;5.57;;;11.00;99.90;;;;;;5079889;28;20046;-58
2022/09/26 04:36:43;;;;;;;9.48;5.28;;;10.70;99.90;;;;;;5080277;28;20056;-59
2022/09/26 04:39:09;;;;;;;9.60;5.72;;;10.80;99.90;;;;;;5064105;28;20041;-59
2022/09/26 04:41:35;;;;;;;10.35;5.63;;;10.80;99.90;;;;;;5077885;28;20056;-58
2022/09/26 04:44:01;;;;;;;11.38;5.80;;;10.70;99.90;;;;;;5078629;28;20091;-58
2022/09/26 04:46:28;;;;;;;9.90;5.43;;;10.80;99.90;;;;;;5079302;28;20040;-59
2022/09/26 04:48:56;;;;;;;15.43;6.10;;;10.90;99.90;;;;;;5078396;28;20036;-58
2022/09/26 04:51:23;;;;;;;14.30;6.30;;;11.00;99.90;;;;;;5081012;28;20071;-58
2022/09/26 04:53:49;;;;;;;10.18;6.38;;;10.90;99.90;;;;;;5080090;28;20158;-58
2022/09/26 04:56:17;;;;;;;13.30;6.07;;;10.80;99.90;;;;;;5078983;28;20037;-59
2022/09/26 04:58:44;;;;;;;10.73;5.75;;;10.80;99.90;;;;;;5080221;28;20048;-58
2022/09/26 05:01:11;;;;;;;12.45;6.45;;;10.90;99.90;;;;;;5079702;28;20057;-59
2022/09/26 05:03:38;;;;;;;13.95;5.93;;;10.90;99.90;;;;;;5079058;28;20052;-59
2022/09/26 05:06:07;;;;;;;11.85;7.00;;;10.80;99.90;;;;;;5079345;28;20049;-60
2022/09/26 05:08:34;;;;;;;13.20;7.00;;;10.70;99.90;;;;;;5080966;28;20489;-60
2022/09/26 05:11:01;;;;;;;13.50;6.80;;;10.70;99.90;;;;;;5079677;28;20045;-59
2022/09/26 05:13:27;;;;;;;10.23;6.28;;;10.70;99.90;;;;;;5080035;28;20052;-60
2022/09/26 05:15:54;;;;;;;11.13;6.50;;;10.80;99.90;;;;;;5080309;28;20508;-60
2022/09/26 05:18:22;;;;;;;11.55;6.15;;;10.80;99.90;;;;;;5078485;28;20162;-60
2022/09/26 05:20:49;;;;;;;13.65;6.70;;;10.60;99.90;;;;;;5080478;28;20051;-60
2022/09/26 05:26:18;;;;;;;13.60;7.38;;;10.80;99.90;;;;;;5078269;28;20060;-60
2022/09/26 05:28:55;;;;;;;14.27;8.00;;;10.90;99.90;;;;;;5079979;28;20041;-60
2022/09/26 05:31:23;;;;;;;13.40;8.30;;;10.60;99.90;;;;;;5079609;28;20033;-60
2022/09/26 05:33:50;;;;;;;13.43;7.57;;;10.90;99.90;;;;;;5080222;28;20063;-60
2022/09/26 05:36:17;;;;;;;12.65;8.20;;;10.50;99.90;;;;;;5079197;28;20055;-59
2022/09/26 05:38:44;;;;;;;12.20;8.13;;;10.60;99.90;;;;;;5068825;28;20053;-59
2022/09/26 05:41:11;;;;;;;13.48;8.07;;;10.60;99.90;;;;;;5079327;28;20052;-59
2022/09/26 05:43:36;;;;;;;11.27;7.22;;;10.60;99.90;;;;;;5079519;28;20051;-60
2022/09/26 05:46:07;;;;;;;13.48;7.85;;;10.80;99.90;;;;;;5075904;28;20041;-59
2022/09/26 05:48:34;;;;;;;12.73;7.55;;;10.60;99.90;;;;;;5075561;28;20132;-60
2022/09/26 05:51:07;;;;;;;14.02;7.30;;;10.70;99.90;;;;;;5076315;28;20083;-60
2022/09/26 05:53:33;;;;;;;15.30;8.27;;;10.70;99.90;;;;;;5075348;28;20047;-59
2022/09/26 05:55:59;;;;;;;13.93;7.75;;;10.80;99.90;;;;;;5074842;28;20123;-60
2022/09/26 05:58:33;;;;;;;13.50;7.75;;;10.70;99.90;;;;;;5074197;28;20067;-59
2022/09/26 06:01:05;;;;;;;13.60;7.53;;;10.50;99.90;;;;;;5074215;28;20087;-59
2022/09/26 06:03:33;;;;;;;11.98;7.18;;;10.70;99.90;;;;;;5076176;28;20113;-58
2022/09/26 06:06:11;;;;;;;13.43;7.70;;;10.70;99.90;;;;;;5075129;28;20136;-59
2022/09/26 06:08:38;;;;;;;15.40;7.97;;;10.50;99.90;;;;;;5076374;28;20119;-59
2022/09/26 06:11:06;;;;;;;12.63;6.97;;;10.50;99.90;;;;;;5075653;28;20048;-59
2022/09/26 06:13:33;;;;;;;14.10;7.88;;;10.70;99.90;;;;;;5076103;28;20420;-59
2022/09/26 06:16:04;;;;;;;12.98;7.55;;;10.60;99.90;;;;;;5075765;28;20079;-59
2022/09/26 06:18:34;;;;;;;13.05;7.05;;;10.70;99.90;;;;;;5075252;28;20044;-59
2022/09/26 06:21:05;;;;;;;13.75;7.28;;;10.70;99.90;;;;;;5074311;28;20052;-59
2022/09/26 06:23:32;;;;;;;12.75;7.07;;;10.60;99.90;;;;;;5073777;28;20052;-59
2022/09/26 06:25:58;;;;;;;10.55;6.93;;;10.60;99.90;;;;;;5076156;28;20135;-59
2022/09/26 06:28:27;;;;;;;15.18;7.35;;;10.70;99.90;;;;;;5075692;28;20088;-58
2022/09/26 06:30:54;;;;;;;13.50;6.85;;;10.60;99.90;;;;;;5078835;28;20074;-59
2022/09/26 06:33:20;;;;;;;14.38;8.20;;;10.50;99.90;;;;;;5078933;28;20564;-59
2022/09/26 06:35:46;;;;;;;12.93;6.90;;;10.50;99.90;;;;;;5078894;28;20067;-59
2022/09/26 06:38:12;;;;;;;12.98;6.80;;;10.60;99.90;;;;;;5070060;28;20041;-59
2022/09/26 06:40:37;;;;;;;11.65;6.40;;;10.60;99.90;;;;;;5067703;28;20040;-59
2022/09/26 06:43:03;;;;;;;12.52;7.07;;;10.60;99.90;;;;;;5079393;28;20055;-59
2022/09/26 06:45:29;;;;;;;12.32;6.47;;;10.50;99.90;;;;;;5078565;28;20044;-59
2022/09/26 06:47:54;;;;;;;15.55;6.97;;;10.40;99.90;;;;;;5078751;28;20103;-58
2022/09/26 06:50:21;;;;;;;14.88;7.03;;;10.40;99.90;;;;;;5079177;28;20040;-59
2022/09/26 06:52:46;;;;;;;14.20;7.20;;;10.60;99.90;;;;;;5077724;28;20052;-59
2022/09/26 06:55:13;;;;;;;11.70;6.57;;;10.40;99.90;;;;;;5078122;28;20116;-59
2022/09/26 06:57:42;;;;;;;11.95;6.93;;;10.40;99.90;;;;;;5077148;28;20063;-58
2022/09/26 07:00:14;;;;;;;15.88;6.55;;;10.50;99.90;;;;;;5079314;28;20098;-59
2022/09/26 07:02:54;;;;;;;10.32;6.07;;;10.60;99.90;;;;;;5078661;28;20443;-58
2022/09/26 07:05:21;;;;;;;11.73;6.75;;;10.50;99.90;;;;;;5076649;28;20052;-59
2022/09/26 07:07:47;;;;;;;13.95;6.90;;;10.50;99.90;;;;;;5079000;28;20567;-59
2022/09/26 07:10:17;;;;;;;10.23;6.15;;;10.50;99.90;;;;;;5077313;28;20121;-58
2022/09/26 07:12:44;;;;;;;11.65;6.50;;;10.40;99.90;;;;;;5079505;28;20041;-58
2022/09/26 07:15:12;;;;;;;12.23;7.45;;;10.60;99.90;;;;;;5078057;28;20047;-59
2022/09/26 07:17:39;;;;;;;11.45;7.15;;;10.70;99.90;;;;;;5078413;28;20075;-59
2022/09/26 07:20:08;;;;;;;11.70;6.85;;;10.60;99.90;;;;;;5078196;28;20064;-59
2022/09/26 07:22:34;;;;;;;16.67;7.30;;;10.60;99.90;;;;;;5075097;28;20075;-59
2022/09/26 07:25:00;;;;;;;14.88;6.35;;;10.60;99.90;;;;;;5078720;28;20049;-59
2022/09/26 07:27:25;;;;;;;15.40;7.53;;;10.60;99.90;;;;;;5077364;28;20072;-59
2022/09/26 07:29:51;;;;;;;13.98;7.45;;;10.60;99.90;;;;;;5078834;28;20060;-59
2022/09/26 07:32:17;;;;;;;14.00;6.50;;;10.40;99.90;;;;;;5077479;28;20092;-58
2022/09/26 07:34:43;;;;;;;13.00;7.05;;;10.60;99.90;;;;;;5077718;28;20044;-59
2022/09/26 07:37:08;;;;;;;12.77;5.70;;;10.40;99.90;;;;;;5077957;28;20045;-59
2022/09/26 07:39:34;;;;;;;12.75;6.25;;;10.60;99.90;;;;;;5075444;28;20479;-59
2022/09/26 07:42:03;;;;;;;13.73;6.63;;;10.60;99.90;;;;;;5077653;28;20040;-58
2022/09/26 07:44:29;;;;;;;10.32;6.00;;;10.50;99.90;;;;;;5076216;28;20049;-58
2022/09/26 07:50:21;;;;;;;12.90;6.50;;;10.70;99.90;;;;;;5077405;28;20048;-58
2022/09/26 07:52:28;;;;;;;13.65;5.85;;;10.60;99.90;;;;;;5071371;28;20083;-58
2022/09/26 07:54:53;;;;;;;9.27;5.80;;;10.70;99.90;;;;;;5077795;28;20064;-58
2022/09/26 07:57:19;;;;;;;13.57;5.78;;;10.80;99.90;;;;;;5076546;28;20078;-59
2022/09/26 07:59:45;;;;;;;9.20;5.05;;;10.70;99.90;;;;;;5078324;28;20057;-59
2022/09/26 08:02:25;;;;;;;9.88;5.70;;;10.70;99.90;;;;;;5076973;28;20102;-58
2022/09/26 08:04:53;;;;;;;11.55;5.28;;;10.90;99.90;;;;;;5077444;28;20086;-58
2022/09/26 08:07:19;;;;;;;11.52;5.50;;;10.80;99.90;;;;;;5077588;28;20057;-58
2022/09/26 08:09:45;;;;;;;9.13;5.18;;;10.90;99.90;;;;;;5076479;28;20420;-58
2022/09/26 08:12:13;;;;;;;11.90;6.57;;;10.90;99.90;;;;;;5077907;28;20446;-58
2022/09/26 08:14:39;;;;;;;10.38;5.50;;;10.90;99.90;;;;;;5076555;28;20068;-57
2022/09/26 08:17:05;;;;;;;9.35;4.40;;;10.90;99.90;;;;;;5077224;28;20046;-57
2022/09/26 08:19:30;;;;;;;13.43;5.20;;;10.90;99.90;;;;;;5074837;28;20108;-57
2022/09/26 08:21:57;;;;;;;9.38;5.15;;;10.90;99.90;;;;;;5076409;28;20041;-57
2022/09/26 08:24:23;;;;;;;9.80;4.80;;;10.90;99.90;;;;;;5076638;28;20123;-57
2022/09/26 08:26:49;;;;;;;8.95;4.82;;;10.90;99.90;;;;;;5076269;28;20076;-58
2022/09/26 08:29:14;;;;;;;10.52;4.10;;;10.90;99.90;;;;;;5076444;28;20032;-58
2022/09/26 08:31:40;;;;;;;10.35;4.90;;;11.00;99.90;;;;;;5075796;28;20536;-58
2022/09/26 08:34:07;;;;;;;12.23;4.63;;;11.10;99.90;;;;;;5077267;28;20040;-57
2022/09/26 08:36:35;;;;;;;10.73;4.53;;;11.00;99.90;;;;;;5076145;28;20048;-57
2022/09/26 08:39:02;;;;;;;9.93;4.60;;;11.00;99.90;;;;;;5073539;28;20048;-58
2022/09/26 08:41:38;;;;;;;10.32;4.20;;;11.10;99.90;;;;;;5075157;28;20036;-58
2022/09/26 08:44:36;;;;;;;9.43;4.35;;;11.20;99.90;;;;;;5074534;28;20072;-58
2022/09/26 08:47:09;;;;;;;8.73;4.38;;;11.20;99.90;;;;;;5063389;28;20615;-57
2022/09/26 08:50:01;;;;;;;10.00;5.13;;;11.20;99.90;;;;;;5074192;28;20059;-57
2022/09/26 08:52:36;;;;;;;10.15;4.70;;;11.20;99.90;;;;;;5074465;28;20037;-57
2022/09/26 08:55:16;;;;;;;8.38;4.35;;;11.30;99.90;;;;;;5076577;28;20048;-58
2022/09/26 08:57:51;;;;;;;9.68;4.25;;;11.30;99.90;;;;;;5075134;28;20060;-58
2022/09/26 09:00:25;;;;;;;12.48;4.70;;;11.30;99.90;;;;;;5075213;28;20053;-59
2022/09/26 09:03:09;;;;;;;9.90;4.50;;;11.40;99.90;;;;;;5075977;28;20117;-58
2022/09/26 09:05:39;;;;;;;10.70;4.53;;;11.50;99.90;;;;;;5073500;28;20056;-58
2022/09/26 09:08:12;;;;;;;8.93;4.70;;;11.40;99.90;;;;;;5074194;28;20070;-58
2022/09/26 09:10:57;;;;;;;9.18;4.00;;;11.50;99.90;;;;;;5074506;28;20052;-58
2022/09/26 09:13:36;;;;;;;12.57;4.68;;;11.60;99.90;;;;;;5073375;28;20059;-59
2022/09/26 09:16:24;;;;;;;10.88;4.40;;;11.50;99.90;;;;;;5074390;28;20050;-58
2022/09/26 09:19:01;;;;;;;9.40;3.83;;;11.50;99.90;;;;;;5074457;28;20603;-58
2022/09/26 09:22:03;;;;;;;9.02;4.05;;;11.60;99.90;;;;;;5074940;28;20048;-58
2022/09/26 09:24:45;;;;;;;9.52;4.07;;;11.70;99.90;;;;;;5075463;28;20304;-59
2022/09/26 09:27:40;;;;;;;11.15;4.25;;;11.60;99.90;;;;;;5074635;28;20067;-58
2022/09/26 09:30:27;;;;;;;8.65;4.10;;;11.60;99.90;;;;;;5073605;28;20055;-59
2022/09/26 09:33:16;;;;;;;9.50;4.13;;;11.60;99.90;;;;;;5074701;28;20074;-58
2022/09/26 09:35:51;;;;;;;7.68;4.00;;;11.70;99.90;;;;;;5073469;28;20055;-58
2022/09/26 09:38:37;;;;;;;8.65;3.95;;;11.60;99.90;;;;;;5073125;28;20532;-58
2022/09/26 09:41:55;;;;;;;9.73;4.55;;;11.60;99.90;;;;;;5072339;28;20049;-59
2022/09/26 09:44:53;;;;;;;7.78;3.90;;;11.70;99.90;;;;;;5045775;28;20048;-58
2022/09/26 09:47:20;;;;;;;10.45;4.35;;;11.70;99.90;;;;;;5077111;28;20505;-58
2022/09/26 09:49:47;;;;;;;8.38;4.30;;;11.90;99.90;;;;;;5078095;28;20078;-58
2022/09/26 09:52:38;;;;;;;10.45;5.15;;;11.70;99.90;;;;;;5077083;28;20043;-58
2022/09/26 09:55:22;;;;;;;9.98;5.40;;;11.70;99.90;;;;;;5077612;28;20420;-59
2022/09/26 09:58:12;;;;;;;11.38;5.35;;;11.70;99.90;;;;;;5075067;28;20055;-58
2022/09/26 10:00:46;;;;;;;11.20;5.32;;;11.60;99.90;;;;;;5077103;28;20040;-58
2022/09/26 10:03:18;;;;;;;13.88;5.70;;;11.60;99.90;;;;;;5077879;28;20059;-58
2022/09/26 10:05:48;;;;;;;13.15;6.28;;;11.60;99.90;;;;;;5082022;28;20036;-59
2022/09/26 10:08:19;;;;;;;12.80;6.35;;;11.50;99.90;;;;;;5082436;28;20037;-58
2022/09/26 10:11:22;;;;;;;10.65;5.57;;;11.40;99.90;;;;;;5081812;28;20108;-58
2022/09/26 10:13:55;;;;;;;10.55;6.40;;;11.40;99.90;;;;;;5080886;28;20056;-59
2022/09/26 10:16:22;;;;;;;9.98;6.10;;;11.70;99.90;;;;;;5062410;28;20045;-59
2022/09/26 10:19:05;;;;;;;16.50;6.72;;;11.60;99.90;;;;;;5077219;28;20052;-58
2022/09/26 10:21:44;;;;;;;11.32;6.32;;;11.60;99.90;;;;;;5063290;28;20048;-59
2022/09/26 10:24:37;;;;;;;10.50;6.60;;;11.60;99.90;;;;;;5061911;28;20056;-58
2022/09/26 10:27:34;;;;;;;15.40;6.82;;;11.50;99.90;;;;;;5078979;28;20044;-58
2022/09/26 10:30:25;;;;;;;11.45;7.53;;;11.50;99.90;;;;;;5079046;28;20076;-59
2022/09/26 10:32:55;;;;;;;12.50;7.88;;;11.40;99.90;;;;;;5080237;28;20072;-59
2022/09/26 10:35:44;;;;;;;12.20;7.35;;;11.60;99.90;;;;;;5078554;28;20066;-59
2022/09/26 10:38:26;;;;;;;12.32;7.65;;;11.30;99.90;;;;;;5068421;28;20139;-60
2022/09/26 10:41:00;;;;;;;13.25;7.63;;;11.50;99.90;;;;;;5079521;28;20424;-60
2022/09/26 10:43:30;;;;;;;12.25;7.70;;;11.30;99.90;;;;;;5077349;28;20119;-61
2022/09/26 10:46:08;;;;;;;14.75;7.38;;;11.40;99.90;;;;;;5081648;28;20040;-62
2022/09/26 10:48:45;;;;;;;12.98;8.27;;;11.40;99.90;;;;;;5080571;28;20040;-62
2022/09/26 10:51:27;;;;;;;12.52;7.85;;;11.30;99.90;;;;;;5080087;28;20046;-61
2022/09/26 10:54:08;;;;;;;12.60;8.00;;;11.30;99.90;;;;;;5079983;28;20045;-60
2022/09/26 10:56:39;;;;;;;16.10;8.50;;;11.40;99.90;;;;;;5078865;28;20092;-61
2022/09/26 10:59:08;;;;;;;13.40;7.68;;;11.30;99.90;;;;;;5067876;28;20122;-60
2022/09/26 11:01:43;;;;;;;13.88;8.38;;;11.40;99.90;;;;;;5069340;28;20613;-61
2022/09/26 11:07:17;;;;;;;11.35;7.18;;;11.40;99.90;;;;;;5081062;28;20055;-61
2022/09/26 11:09:45;;;;;;;13.05;7.70;;;11.40;99.90;;;;;;5078633;28;20090;-60
2022/09/26 11:12:24;;;;;;;12.35;8.23;;;11.30;99.90;;;;;;5079428;28;20428;-60
2022/09/26 11:15:19;;;;;;;13.23;7.82;;;11.50;99.90;;;;;;5066937;28;20037;-60
2022/09/26 11:17:47;;;;;;;12.88;8.32;;;11.50;99.90;;;;;;5060737;28;20053;-61
2022/09/26 11:20:31;;;;;;;15.85;10.02;;;11.50;99.90;;;;;;5059408;28;20045;-61
2022/09/26 11:23:15;;;;;;;12.70;7.85;;;11.50;99.90;;;;;;5060096;28;20071;-60
2022/09/26 11:25:55;;;;;;;13.15;9.07;;;11.60;99.90;;;;;;5060818;28;20049;-59
2022/09/26 11:28:29;;;;;;;12.70;8.20;;;11.40;99.90;;;;;;5068335;28;20036;-58
2022/09/26 11:31:01;;;;;;;13.50;8.35;;;11.60;99.90;;;;;;5065681;28;20037;-59
2022/09/26 11:33:27;;;;;;;15.05;8.52;;;11.30;99.90;;;;;;5063118;28;20417;-57
2022/09/26 11:36:28;;;;;;;13.88;8.93;;;11.60;99.90;;;;;;5068298;28;20045;-59
2022/09/26 11:39:21;;;;;;;13.00;8.55;;;11.50;99.90;;;;;;5066140;28;20056;-59
2022/09/26 11:41:56;;;;;;;;;;;11.40;99.90;;;;;;5060444;28;20112;-59
2022/09/26 11:44:39;;;;;;;12.65;8.55;;;11.40;99.90;;;;;;5063443;28;20277;-59
2022/09/26 11:47:05;;;;;;;10.90;8.88;;;11.60;99.90;;;;;;5067481;28;20047;-59
2022/09/26 11:49:52;;;;;;;13.60;8.63;;;11.70;99.90;;;;;;5069297;28;20036;-59
2022/09/26 11:52:33;;;;;;;13.13;8.45;;;11.70;99.90;;;;;;5069232;28;20136;-59
2022/09/26 11:55:17;;;;;;;11.77;8.15;;;11.60;99.90;;;;;;5071071;28;20560;-59
2022/09/26 11:58:00;;;;;;;13.48;9.52;;;11.60;99.90;;;;;;5070928;28;20344;-59
2022/09/26 12:00:56;;;;;;;13.82;8.70;;;11.80;99.90;;;;;;5070576;28;20491;-59
2022/09/26 12:03:57;;;;;;;13.27;8.60;;;11.90;99.90;;;;;;5068165;28;20048;-59
2022/09/26 12:06:32;;;;;;;10.90;7.85;;;11.90;99.90;;;;;;5070725;28;20075;-58
2022/09/26 12:09:23;;;;;;;15.25;7.97;;;12.00;99.90;;;;;;5069889;28;20044;-59
2022/09/26 12:11:54;;;;;;;12.13;7.78;;;11.80;99.90;;;;;;5068893;28;20064;-59
2022/09/26 12:14:35;;;;;;;12.48;7.88;;;11.90;99.90;;;;;;5061980;28;20028;-59
2022/09/26 12:17:40;;;;;;;11.50;7.20;;;12.00;99.90;;;;;;5061362;28;20048;-58
2022/09/26 12:20:31;;;;;;;10.38;7.32;;;11.80;99.90;;;;;;5042143;28;20307;-59
2022/09/26 12:23:18;;;;;;;9.82;6.60;;;11.90;99.90;;;;;;5047041;28;20049;-59
2022/09/26 12:26:07;;;;;;;10.40;6.80;;;11.80;99.90;;;;;;5057334;28;20045;-58
2022/09/26 12:28:52;;;;;;;10.10;7.55;;;11.80;99.90;;;;;;5065280;28;20052;-58
2022/09/26 12:31:19;;;;;;;8.98;6.40;;;11.80;99.90;;;;;;5059172;28;20037;-58
2022/09/26 12:33:57;;;;;;;11.43;7.05;;;12.00;99.90;;;;;;5059745;28;20064;-58
2022/09/26 12:36:46;;;;;;;14.07;7.72;;;11.90;99.90;;;;;;5058259;28;20493;-57
2022/09/26 12:39:43;;;;;;;9.80;6.80;;;12.20;99.90;;;;;;5074230;28;20135;-58
2022/09/26 12:42:40;;;;;;;10.10;7.00;;;12.20;99.90;;;;;;5058987;28;20068;-57
2022/09/26 12:45:25;;;;;;;10.98;7.30;;;12.20;99.90;;;;;;5057256;28;20053;-58
2022/09/26 12:47:54;;;;;;;10.82;7.03;;;12.10;99.90;;;;;;5057825;28;20065;-58
2022/09/26 12:50:41;;;;;;;11.00;7.15;;;12.30;99.90;;;;;;5058919;28;20071;-58
2022/09/26 12:53:20;;;;;;;11.60;6.90;;;12.20;99.90;;;;;;5057582;28;20533;-58
2022/09/26 12:55:55;;;;;;;9.15;6.25;;;12.20;99.90;;;;;;5059194;28;20508;-57
2022/09/26 12:58:56;;;;;;;9.82;6.68;;;12.50;99.90;;;;;;5059058;28;20061;-58
2022/09/26 13:01:31;;;;;;;9.77;6.18;;;12.40;99.90;;;;;;5064068;28;20043;-59
2022/09/26 13:04:35;;;;;;;10.13;6.45;;;12.50;99.90;;;;;;5079464;28;20051;-58
2022/09/26 13:07:23;;;;;;;7.95;6.22;;;12.50;99.90;;;;;;5078104;28;20064;-58
2022/09/26 13:10:22;;;;;;;9.30;5.80;;;12.40;99.90;;;;;;5078122;28;20044;-58
2022/09/26 13:13:24;;;;;;;9.80;6.38;;;12.40;99.90;;;;;;5070648;28;20083;-59
2022/09/26 13:16:02;;;;;;;;;;;12.50;99.90;;;;;;5076680;28;20118;-58
2022/09/26 13:18:45;;;;;;;9.43;5.82;;;12.80;99.90;;;;;;5075865;28;19920;-58
2022/09/26 13:21:17;;;;;;;7.97;5.97;;;12.60;99.90;;;;;;5076539;28;20108;-58
2022/09/26 13:24:06;;;;;;;12.35;6.00;;;12.50;99.90;;;;;;5078558;28;20836;-54
2022/09/26 13:26:45;;;;;;;8.68;6.07;;;12.70;99.90;;;;;;5076134;28;20072;-59
2022/09/26 13:29:19;;;;;;;8.15;5.68;;;12.70;99.90;;;;;;5076911;28;20047;-58